Time;durP1;ratioP1;P1;durP2;ratioP2;P2;SDS_P1;SDS_P2;PMS_P1;PMS_P2;Temp;Humidity;BMP_temperature;BMP_pressure;BME280_temperature;BME280_humidity;BME280_pressure;Samples;Min_cycle;Max_cycle;Signal;HPM_P1;HPM_P2
2021/07/23 00:00:28;;;;;;;;;;;21.30;79.00;;;;;;4273509;33;44263;-85
2021/07/23 00:02:58;;;;;;;;;;;21.30;79.00;;;;;;4285061;33;44434;-85
2021/07/23 00:05:31;;;;;;;;;;;21.20;79.00;;;;;;4272991;33;45652;-85
2021/07/23 00:07:58;;;;;;;;;;;21.20;79.00;;;;;;4285242;33;44417;-85
2021/07/23 00:10:29;;;;;;;;;;;21.20;79.00;;;;;;4272832;33;45414;-86
2021/07/23 00:13:00;;;;;;;;;;;21.20;79.10;;;;;;4273489;33;45208;-86
2021/07/23 00:15:27;;;;;;;;;;;21.20;79.10;;;;;;4273269;33;44457;-86
2021/07/23 00:17:58;;;;;;;;;;;21.20;79.10;;;;;;4273206;33;45470;-85
2021/07/23 00:20:25;;;;;;;;;;;21.20;79.10;;;;;;4272897;33;42506;-85
2021/07/23 00:22:52;;;;;;;;;;;21.10;79.10;;;;;;4285082;33;44479;-85
2021/07/23 00:25:26;;;;;;;;;;;21.10;79.10;;;;;;4273163;33;44919;-85
2021/07/23 00:28:02;;;;;;;;;;;21.10;79.20;;;;;;4272959;33;45997;-86
2021/07/23 00:30:35;;;;;;;;;;;21.10;79.20;;;;;;4285073;33;44661;-86
2021/07/23 00:33:05;;;;;;;;;;;21.10;79.30;;;;;;4273110;33;44149;-86
2021/07/23 00:35:38;;;;;;;;;;;21.10;79.30;;;;;;4284823;33;44062;-87
2021/07/23 00:38:06;;;;;;;;;;;21.10;79.30;;;;;;4273031;33;43472;-88
2021/07/23 00:40:34;;;;;;;;;;;21.00;79.20;;;;;;4284403;33;43847;-86
2021/07/23 00:43:07;;;;;;;;;;;21.00;79.30;;;;;;4272854;33;45318;-85
2021/07/23 00:45:41;;;;;;;;;;;21.00;79.30;;;;;;4273634;33;20003;-86
2021/07/23 00:48:16;;;;;;;;;;;21.00;79.30;;;;;;4284491;33;44385;-86
2021/07/23 00:50:44;;;;;;;;;;;21.00;79.40;;;;;;4272804;33;44401;-87
2021/07/23 00:53:15;;;;;;;;;;;20.90;79.30;;;;;;4284369;33;43509;-86
2021/07/23 00:55:52;;;;;;;;;;;20.90;79.30;;;;;;4272469;33;44126;-86
2021/07/23 00:58:22;;;;;;;;;;;20.90;79.30;;;;;;4272130;33;44051;-86
2021/07/23 01:00:58;;;;;;;;;;;20.90;79.30;;;;;;4284041;33;44062;-86
2021/07/23 01:03:29;;;;;;;;;;;20.80;79.40;;;;;;4272193;33;42159;-87
2021/07/23 01:05:57;;;;;;;;;;;20.80;79.40;;;;;;4284726;33;45427;-86
2021/07/23 01:08:30;;;;;;;;;;;20.80;79.30;;;;;;4272375;33;45337;-86
2021/07/23 01:11:00;;;;;;;;;;;20.80;79.40;;;;;;4272721;33;44647;-86
2021/07/23 01:13:36;;;;;;;;;;;20.80;79.40;;;;;;4283830;33;44202;-86
2021/07/23 01:16:04;;;;;;;;;;;20.80;79.40;;;;;;4274304;33;20006;-87
2021/07/23 01:18:38;;;;;;;;;;;20.80;79.40;;;;;;4284173;33;43497;-86
2021/07/23 01:21:06;;;;;;;;;;;20.80;79.50;;;;;;4273381;33;20031;-86
2021/07/23 01:23:37;;;;;;;;;;;20.70;79.40;;;;;;4284035;33;45227;-87
2021/07/23 01:26:14;;;;;;;;;;;20.70;79.40;;;;;;4272376;33;45458;-87
2021/07/23 01:28:45;;;;;;;;;;;20.70;79.40;;;;;;4272407;33;44867;-87
2021/07/23 01:31:13;;;;;;;;;;;20.70;79.50;;;;;;4284415;33;45349;-87
2021/07/23 01:33:46;;;;;;;;;;;20.70;79.60;;;;;;4272351;33;44376;-87
2021/07/23 01:36:18;;;;;;;;;;;20.70;79.60;;;;;;4272220;33;44790;-86
2021/07/23 01:38:47;;;;;;;;;;;20.60;79.50;;;;;;4284129;33;45628;-87
2021/07/23 01:41:17;;;;;;;;;;;20.60;79.60;;;;;;4272863;33;44173;-87
2021/07/23 01:43:44;;;;;;;;;;;20.60;79.70;;;;;;4284191;33;45299;-86
2021/07/23 01:46:17;;;;;;;;;;;20.60;79.60;;;;;;4272966;33;20420;-87
2021/07/23 01:48:52;;;;;;;;;;;20.50;79.60;;;;;;4272156;33;44207;-87
2021/07/23 01:51:24;;;;;;;;;;;20.50;79.50;;;;;;4284020;33;44075;-88
2021/07/23 01:53:52;;;;;;;;;;;20.50;79.60;;;;;;4272283;33;43894;-86
2021/07/23 01:56:25;;;;;;;;;;;20.50;79.60;;;;;;4284094;33;45383;-87
2021/07/23 01:59:02;;;;;;;;;;;20.50;79.50;;;;;;4272168;33;45365;-87
2021/07/23 02:01:35;;;;;;;;;;;20.50;79.70;;;;;;4271811;33;45375;-87
2021/07/23 02:04:08;;;;;;;;;;;20.50;79.70;;;;;;4283948;33;44502;-87
2021/07/23 02:06:42;;;;;;;;;;;20.40;79.70;;;;;;4272003;33;45450;-87
2021/07/23 02:09:15;;;;;;;;;;;20.40;79.70;;;;;;4283436;33;44788;-87
2021/07/23 02:11:42;;;;;;;;;;;20.40;79.70;;;;;;4271872;33;44431;-88
2021/07/23 02:14:15;;;;;;;;;;;20.40;79.80;;;;;;4283318;33;44459;-87
2021/07/23 02:16:51;;;;;;;;;;;20.40;79.80;;;;;;4273243;33;20046;-86
2021/07/23 02:19:21;;;;;;;;;;;20.40;79.80;;;;;;4271834;33;44418;-87
2021/07/23 02:21:57;;;;;;;;;;;20.30;79.80;;;;;;4283407;33;44823;-87
2021/07/23 02:24:24;;;;;;;;;;;20.30;79.80;;;;;;4272036;33;43983;-88
2021/07/23 02:26:53;;;;;;;;;;;20.30;79.80;;;;;;4283002;33;44454;-87
2021/07/23 02:29:29;;;;;;;;;;;20.30;80.00;;;;;;4271204;33;45470;-88
2021/07/23 02:32:01;;;;;;;;;;;20.30;79.90;;;;;;4271927;33;44388;-87
2021/07/23 02:34:34;;;;;;;;;;;20.30;80.00;;;;;;4283606;33;44414;-87
2021/07/23 02:37:08;;;;;;;;;;;20.20;80.00;;;;;;4271846;33;43426;-87
2021/07/23 02:39:40;;;;;;;;;;;20.20;80.10;;;;;;4283654;33;43132;-87
2021/07/23 02:42:16;;;;;;;;;;;20.20;80.10;;;;;;4271852;33;45136;-87
2021/07/23 02:44:47;;;;;;;;;;;20.20;80.30;;;;;;4271868;33;44081;-87
2021/07/23 02:47:17;;;;;;;;;;;20.20;80.30;;;;;;4284225;33;20007;-88
2021/07/23 02:49:47;;;;;;;;;;;20.20;80.30;;;;;;4271813;33;44965;-86
2021/07/23 02:52:18;;;;;;;;;;;20.20;80.50;;;;;;4283409;33;44149;-87
2021/07/23 02:54:51;;;;;;;;;;;20.10;80.30;;;;;;4271179;33;42719;-86
2021/07/23 02:57:22;;;;;;;;;;;20.20;80.30;;;;;;4271704;33;44408;-87
2021/07/23 02:59:51;;;;;;;;;;;20.10;80.20;;;;;;4283181;33;44012;-86
2021/07/23 03:02:25;;;;;;;;;;;20.10;80.20;;;;;;4271223;33;44412;-87
2021/07/23 03:04:55;;;;;;;;;;;20.10;80.30;;;;;;4283572;33;44764;-87
2021/07/23 03:07:25;;;;;;;;;;;20.10;80.30;;;;;;4271650;33;44005;-86
2021/07/23 03:09:55;;;;;;;;;;;20.00;80.20;;;;;;4282795;33;44046;-87
2021/07/23 03:12:23;;;;;;;;;;;20.10;80.40;;;;;;4270963;33;44245;-87
2021/07/23 03:14:50;;;;;;;;;;;20.00;80.40;;;;;;4271534;33;44069;-87
2021/07/23 03:17:23;;;;;;;;;;;20.00;80.40;;;;;;4283781;33;26732;-87
2021/07/23 03:19:51;;;;;;;;;;;20.00;80.60;;;;;;4272431;33;43959;-87
2021/07/23 03:22:19;;;;;;;;;;;20.00;80.70;;;;;;4273946;33;45647;-86
2021/07/23 03:24:55;;;;;;;;;;;20.00;80.60;;;;;;4285603;33;45414;-86
2021/07/23 03:27:23;;;;;;;;;;;19.90;80.50;;;;;;4274067;33;44077;-86
2021/07/23 03:29:57;;;;;;;;;;;20.00;80.70;;;;;;4274089;33;43144;-87
2021/07/23 03:32:32;;;;;;;;;;;19.90;80.60;;;;;;4286040;33;44317;-86
2021/07/23 03:35:05;;;;;;;;;;;19.90;80.50;;;;;;4274091;33;45387;-87
2021/07/23 03:37:32;;;;;;;;;;;19.90;80.50;;;;;;4285970;33;44735;-88
2021/07/23 03:40:03;;;;;;;;;;;19.90;80.50;;;;;;4273781;33;43900;-87
2021/07/23 03:42:31;;;;;;;;;;;19.90;80.50;;;;;;4285728;33;44445;-86
2021/07/23 03:45:04;;;;;;;;;;;19.80;80.40;;;;;;4273313;33;44099;-86
2021/07/23 03:47:35;;;;;;;;;;;19.80;80.50;;;;;;4274625;33;20463;-86
2021/07/23 03:50:11;;;;;;;;;;;19.80;80.40;;;;;;4285401;33;44107;-87
2021/07/23 03:52:45;;;;;;;;;;;19.80;80.40;;;;;;4273672;33;45247;-87
2021/07/23 03:55:18;;;;;;;;;;;19.80;80.50;;;;;;4285629;33;44354;-86
2021/07/23 03:57:47;;;;;;;;;;;19.80;80.60;;;;;;4273809;33;45141;-87
2021/07/23 04:00:16;;;;;;;;;;;19.70;80.60;;;;;;4285195;33;45423;-87
2021/07/23 04:02:50;;;;;;;;;;;19.70;80.70;;;;;;4273581;33;44589;-86
2021/07/23 04:05:20;;;;;;;;;;;19.70;80.80;;;;;;4285472;33;44963;-87
2021/07/23 04:07:56;;;;;;;;;;;19.70;80.80;;;;;;4273470;33;45444;-87
2021/07/23 04:10:25;;;;;;;;;;;19.60;80.70;;;;;;4285262;33;45291;-87
2021/07/23 04:12:55;;;;;;;;;;;19.60;80.80;;;;;;4273454;33;43707;-86
2021/07/23 04:15:24;;;;;;;;;;;19.60;80.90;;;;;;4284762;33;44439;-86
2021/07/23 04:17:52;;;;;;;;;;;19.70;81.00;;;;;;4274669;33;20018;-87
2021/07/23 04:20:26;;;;;;;;;;;19.60;80.90;;;;;;4272856;33;44189;-86
2021/07/23 04:22:58;;;;;;;;;;;19.60;80.90;;;;;;4285338;33;44058;-86
2021/07/23 04:25:29;;;;;;;;;;;19.60;81.80;;;;;;4273415;33;44434;-86
2021/07/23 04:27:59;;;;;;;;;;;19.60;81.00;;;;;;4285021;33;44132;-87
2021/07/23 04:30:30;;;;;;;;;;;19.60;81.10;;;;;;4273014;33;42585;-86
2021/07/23 04:33:03;;;;;;;;;;;19.50;81.10;;;;;;4284953;33;44277;-86
2021/07/23 04:35:41;;;;;;;;;;;19.50;81.20;;;;;;4273176;33;44761;-86
2021/07/23 04:38:09;;;;;;;;;;;19.50;81.20;;;;;;4284715;33;43493;-86
2021/07/23 04:40:40;;;;;;;;;;;19.50;81.30;;;;;;4272990;33;44834;-86
2021/07/23 04:43:16;;;;;;;;;;;19.50;81.40;;;;;;4284888;33;44368;-86
2021/07/23 04:45:49;;;;;;;;;;;19.50;81.50;;;;;;4273079;33;45158;-86
2021/07/23 04:48:16;;;;;;;;;;;19.50;81.50;;;;;;4273529;33;20051;-86
2021/07/23 04:50:46;;;;;;;;;;;19.50;82.40;;;;;;4284290;33;45290;-86
2021/07/23 04:53:17;;;;;;;;;;;19.40;81.70;;;;;;4272980;33;44024;-87
2021/07/23 04:55:50;;;;;;;;;;;19.40;81.70;;;;;;4272624;33;44098;-86
2021/07/23 04:58:17;;;;;;;;;;;19.50;81.80;;;;;;4284673;33;45450;-86
2021/07/23 05:00:52;;;;;;;;;;;19.40;81.90;;;;;;4272781;33;45221;-86
2021/07/23 05:03:23;;;;;;;;;;;19.50;82.10;;;;;;4284379;33;43877;-86
2021/07/23 05:05:52;;;;;;;;;;;19.40;82.10;;;;;;4272699;33;45403;-87
2021/07/23 05:08:22;;;;;;;;;;;19.40;82.20;;;;;;4284331;33;45266;-86
2021/07/23 05:10:53;;;;;;;;;;;19.40;82.20;;;;;;4272006;33;44017;-86
2021/07/23 05:13:24;;;;;;;;;;;19.40;82.30;;;;;;4272686;33;44073;-86
2021/07/23 05:15:53;;;;;;;;;;;19.40;82.30;;;;;;4283608;33;20467;-87
2021/07/23 05:18:21;;;;;;;;;;;19.40;82.40;;;;;;4273422;33;20015;-87
2021/07/23 05:20:54;;;;;;;;;;;19.40;82.40;;;;;;4284096;33;44021;-86
2021/07/23 05:23:25;;;;;;;;;;;19.40;82.40;;;;;;4271872;33;45357;-86
2021/07/23 05:25:54;;;;;;;;;;;19.30;82.40;;;;;;4272430;33;45406;-86
2021/07/23 05:28:28;;;;;;;;;;;19.30;82.60;;;;;;4284157;33;44275;-86
2021/07/23 05:31:14;;;;;;;;;;;19.30;82.60;;;;;;4272419;33;45543;-86
2021/07/23 05:33:41;;;;;;;;;;;19.40;82.90;;;;;;4272504;33;44215;-86
2021/07/23 05:36:11;;;;;;;;;;;19.30;82.80;;;;;;4283773;33;43292;-86
2021/07/23 05:38:41;;;;;;;;;;;19.30;83.00;;;;;;4271664;33;44016;-86
2021/07/23 05:41:09;;;;;;;;;;;19.30;83.00;;;;;;4284161;33;43971;-85
2021/07/23 05:43:39;;;;;;;;;;;19.30;83.10;;;;;;4271140;33;44745;-86
2021/07/23 05:46:09;;;;;;;;;;;19.30;83.00;;;;;;4272063;33;44981;-85
2021/07/23 05:48:37;;;;;;;;;;;19.30;83.20;;;;;;4284564;33;20118;-86
2021/07/23 05:51:13;;;;;;;;;;;19.30;83.30;;;;;;4272113;33;44405;-86
2021/07/23 05:53:40;;;;;;;;;;;19.30;83.40;;;;;;4283860;33;44470;-86
2021/07/23 05:56:08;;;;;;;;;;;19.20;83.50;;;;;;4283266;33;44206;-86
2021/07/23 05:58:35;;;;;;;;;;;19.20;83.60;;;;;;4272184;33;44046;-86
2021/07/23 06:01:06;;;;;;;;;;;19.30;83.70;;;;;;4283156;33;44075;-86
2021/07/23 06:03:40;;;;;;;;;;;19.30;83.70;;;;;;4271786;33;44764;-86
2021/07/23 06:06:16;;;;;;;;;;;19.30;83.90;;;;;;4271862;33;43780;-85
2021/07/23 06:09:04;;;;;;;;;;;19.30;83.90;;;;;;4282112;33;46116;-85
2021/07/23 06:11:37;;;;;;;;;;;19.30;84.00;;;;;;4271485;33;44009;-85
2021/07/23 06:20:52;;;;;;;;;;;19.20;84.30;;;;;;4273943;33;20061;-85
2021/07/23 06:23:33;;;;;;;;;;;19.30;84.50;;;;;;4271939;33;32807;-85
2021/07/23 06:26:10;;;;;;;;;;;19.30;84.60;;;;;;4271714;33;45301;-84
2021/07/23 06:29:37;;;;;;;;;;;19.30;84.60;;;;;;4274015;33;20046;-85
2021/07/23 06:32:11;;;;;;;;;;;19.30;84.70;;;;;;4283251;33;44606;-85
2021/07/23 06:34:54;;;;;;;;;;;19.20;84.80;;;;;;4272637;33;44366;-85
2021/07/23 06:37:37;;;;;;;;;;;19.20;84.90;;;;;;4271641;33;45408;-85
2021/07/23 06:59:45;;;;;;;;;;;19.30;85.30;;;;;;4275644;33;43907;-84
2021/07/23 07:08:46;;;;;;;;;;;19.30;85.60;;;;;;4275386;33;43252;-86
2021/07/23 07:11:17;;;;;;;;;;;19.30;85.70;;;;;;4274189;33;45068;-85
2021/07/23 07:16:55;;;;;;;;;;;19.30;85.90;;;;;;4274759;33;44146;-85
2021/07/23 07:19:25;;;;;;;;;;;19.40;86.00;;;;;;4274021;33;45691;-86
2021/07/23 07:22:05;;;;;;;;;;;19.40;86.00;;;;;;4275178;33;20082;-85
2021/07/23 07:24:43;;;;;;;;;;;19.40;86.00;;;;;;4286093;33;45434;-86
2021/07/23 07:28:03;;;;;;;;;;;19.40;86.00;;;;;;4273410;33;44775;-86
2021/07/23 07:46:37;;;;;;;;;;;19.50;86.10;;;;;;4230184;34;42696;-85
2021/07/23 08:07:31;;;;;;;;;;;19.60;86.20;;;;;;4273172;33;43132;-85
2021/07/23 08:10:02;;;;;;;;;;;19.60;86.20;;;;;;4261663;33;43873;-86
2021/07/23 08:12:32;;;;;;;;;;;19.70;86.30;;;;;;4273706;33;44352;-86
2021/07/23 08:15:00;;;;;;;;;;;19.70;86.30;;;;;;4261427;33;45711;-85
2021/07/23 08:17:28;;;;;;;;;;;19.70;86.30;;;;;;4272992;33;43418;-86
2021/07/23 08:20:02;;;;;;;;;;;19.70;86.20;;;;;;4261686;33;45249;-86
2021/07/23 08:22:30;;;;;;;;;;;19.70;86.30;;;;;;4261821;33;44204;-87
2021/07/23 08:24:57;;;;;;;;;;;19.70;86.20;;;;;;4272747;33;44666;-85
2021/07/23 08:27:28;;;;;;;;;;;19.70;86.10;;;;;;4260930;33;45424;-86
2021/07/23 08:30:02;;;;;;;;;;;19.70;86.10;;;;;;4272551;33;44277;-86
2021/07/23 08:32:36;;;;;;;;;;;19.80;86.30;;;;;;4287089;33;45018;-85
2021/07/23 08:35:06;;;;;;;;;;;19.80;86.20;;;;;;4275461;33;45126;-87
2021/07/23 08:37:34;;;;;;;;;;;19.80;86.20;;;;;;4286984;33;45384;-86
2021/07/23 08:40:06;;;;;;;;;;;19.80;86.20;;;;;;4275488;33;46039;-87
2021/07/23 08:42:34;;;;;;;;;;;19.80;86.20;;;;;;4275633;33;44094;-87
2021/07/23 08:45:06;;;;;;;;;;;19.80;86.10;;;;;;4274887;33;44023;-86
2021/07/23 08:47:36;;;;;;;;;;;19.80;86.10;;;;;;4275272;33;45322;-85
2021/07/23 08:50:04;;;;;;;;;;;19.80;86.10;;;;;;4274988;33;44189;-87
2021/07/23 08:52:50;;;;;;;;;;;19.80;86.10;;;;;;4287369;33;44126;-87
2021/07/23 08:55:23;;;;;;;;;;;19.90;86.10;;;;;;4275217;33;44519;-86
2021/07/23 08:57:51;;;;;;;;;;;19.80;86.00;;;;;;4287125;33;43986;-86
2021/07/23 09:00:19;;;;;;;;;;;19.90;86.10;;;;;;4274701;33;45351;-88
2021/07/23 09:02:57;;;;;;;;;;;19.80;86.00;;;;;;4287308;33;45401;-88
2021/07/23 09:05:38;;;;;;;;;;;19.90;86.00;;;;;;4275399;33;44558;-87
2021/07/23 09:08:11;;;;;;;;;;;19.90;86.00;;;;;;4274715;33;44403;-86
2021/07/23 09:10:42;;;;;;;;;;;19.90;86.00;;;;;;4287508;33;20345;-86
2021/07/23 09:13:10;;;;;;;;;;;19.90;85.90;;;;;;4286979;33;45145;-86
2021/07/23 09:15:42;;;;;;;;;;;19.90;85.90;;;;;;4275233;33;44136;-86
2021/07/23 09:18:24;;;;;;;;;;;19.90;85.90;;;;;;4273862;33;44429;-88
2021/07/23 09:21:01;;;;;;;;;;;19.90;85.90;;;;;;4286751;33;44247;-88
2021/07/23 09:23:31;;;;;;;;;;;20.00;85.80;;;;;;4274966;33;44446;-87
2021/07/23 09:26:14;;;;;;;;;;;20.00;85.90;;;;;;4286784;33;45346;-88
2021/07/23 09:28:44;;;;;;;;;;;20.00;85.90;;;;;;4275261;33;43743;-88
2021/07/23 09:31:22;;;;;;;;;;;20.00;85.60;;;;;;4286481;33;45325;-88
2021/07/23 09:33:59;;;;;;;;;;;20.00;85.60;;;;;;4275347;33;44617;-89
2021/07/23 09:36:30;;;;;;;;;;;20.00;85.60;;;;;;4287258;33;45092;-89
2021/07/23 09:39:11;;;;;;;;;;;20.10;85.50;;;;;;4276445;33;44665;-89
2021/07/23 09:41:41;;;;;;;;;;;20.00;85.30;;;;;;4289123;33;20006;-86
2021/07/23 09:44:15;;;;;;;;;;;20.10;85.30;;;;;;4274682;33;44315;-84
2021/07/23 09:46:51;;;;;;;;;;;20.10;85.20;;;;;;4285924;33;44904;-84
2021/07/23 09:49:22;;;;;;;;;;;20.10;85.20;;;;;;4287328;33;43997;-84
2021/07/23 09:51:51;;;;;;;;;;;20.20;84.90;;;;;;4286483;33;45363;-84
2021/07/23 09:54:24;;;;;;;;;;;20.20;84.60;;;;;;4273885;33;45475;-85
2021/07/23 09:56:51;;;;;;;;;;;20.20;84.70;;;;;;4286408;33;44195;-85
2021/07/23 09:59:37;;;;;;;;;;;20.20;84.60;;;;;;4286823;33;45259;-85
2021/07/23 10:02:10;;;;;;;;;;;20.20;84.50;;;;;;4286199;33;43082;-85
2021/07/23 10:04:41;;;;;;;;;;;20.30;84.30;;;;;;4286415;33;45416;-85
2021/07/23 10:07:08;;;;;;;;;;;20.30;84.40;;;;;;4274002;33;45786;-85
2021/07/23 10:09:37;;;;;;;;;;;20.30;84.40;;;;;;4285888;33;44081;-84
2021/07/23 10:12:12;;;;;;;;;;;20.30;84.20;;;;;;4275003;33;20007;-84
2021/07/23 10:14:47;;;;;;;;;;;20.30;84.20;;;;;;4286187;33;44126;-85
2021/07/23 10:17:20;;;;;;;;;;;20.30;84.20;;;;;;4274477;33;43485;-85
2021/07/23 10:19:49;;;;;;;;;;;20.40;84.20;;;;;;4286067;33;45433;-84
2021/07/23 10:22:23;;;;;;;;;;;20.40;83.80;;;;;;4274468;33;44136;-84
2021/07/23 10:24:51;;;;;;;;;;;20.40;84.00;;;;;;4286204;33;44447;-84
2021/07/23 10:27:25;;;;;;;;;;;20.40;83.80;;;;;;4274888;33;43981;-84
2021/07/23 10:29:55;;;;;;;;;;;20.40;84.10;;;;;;4273857;33;44013;-86
2021/07/23 10:32:30;;;;;;;;;;;20.40;84.00;;;;;;4274133;33;44310;-85
2021/07/23 10:34:58;;;;;;;;;;;20.40;83.90;;;;;;4285609;33;45003;-83
2021/07/23 10:37:29;;;;;;;;;;;20.50;84.10;;;;;;4273958;33;45421;-85
2021/07/23 10:40:08;;;;;;;;;;;20.50;84.10;;;;;;4285672;33;45378;-85
2021/07/23 10:42:37;;;;;;;;;;;20.50;84.00;;;;;;4286815;33;20380;-84
2021/07/23 10:45:11;;;;;;;;;;;20.50;83.90;;;;;;4274029;33;44141;-84
2021/07/23 10:47:45;;;;;;;;;;;20.50;83.90;;;;;;4285901;33;44586;-85
2021/07/23 10:50:39;;;;;;;;;;;20.60;83.90;;;;;;4273956;33;44221;-85
2021/07/23 10:53:25;;;;;;;;;;;20.60;83.70;;;;;;4272486;33;44255;-85
2021/07/23 10:55:58;;;;;;;;;;;20.60;83.50;;;;;;4285869;33;45041;-85
2021/07/23 10:58:26;;;;;;;;;;;20.60;83.60;;;;;;4285944;33;45503;-84
2021/07/23 11:01:02;;;;;;;;;;;20.60;83.40;;;;;;4285786;33;44014;-82
2021/07/23 11:03:35;;;;;;;;;;;20.70;83.50;;;;;;4273931;33;45311;-85
2021/07/23 11:06:15;;;;;;;;;;;20.70;83.50;;;;;;4285739;33;44126;-84
2021/07/23 11:08:56;;;;;;;;;;;20.70;83.60;;;;;;4285052;33;44449;-84
2021/07/23 11:11:31;;;;;;;;;;;20.70;83.40;;;;;;4274145;33;44374;-84
2021/07/23 11:14:15;;;;;;;;;;;20.80;83.60;;;;;;4287923;33;20046;-85
2021/07/23 11:16:42;;;;;;;;;;;20.80;83.50;;;;;;4273967;33;44594;-84
2021/07/23 11:19:19;;;;;;;;;;;20.80;83.50;;;;;;4285640;33;44556;-85
2021/07/23 11:21:52;;;;;;;;;;;20.80;83.50;;;;;;4274145;33;44792;-83
2021/07/23 11:24:19;;;;;;;;;;;20.80;83.50;;;;;;4285572;33;45456;-85
2021/07/23 11:26:49;;;;;;;;;;;20.80;83.40;;;;;;4273406;33;44430;-84
2021/07/23 11:29:38;;;;;;;;;;;20.80;83.40;;;;;;4285515;33;45172;-84
2021/07/23 11:32:09;;;;;;;;;;;20.80;83.40;;;;;;4274073;33;44252;-84
2021/07/23 11:34:39;;;;;;;;;;;20.80;83.40;;;;;;4273622;33;43802;-86
2021/07/23 11:37:29;;;;;;;;;;;20.90;83.40;;;;;;4285513;33;44447;-84
2021/07/23 11:40:12;;;;;;;;;;;20.90;83.50;;;;;;4273618;33;43088;-85
2021/07/23 11:42:41;;;;;;;;;;;20.90;83.40;;;;;;4288231;33;44410;-86
2021/07/23 11:45:14;;;;;;;;;;;20.90;83.50;;;;;;4277519;33;20006;-87
2021/07/23 11:47:43;;;;;;;;;;;21.00;83.50;;;;;;4288127;33;44238;-85
2021/07/23 11:50:12;;;;;;;;;;;21.00;83.40;;;;;;4275717;33;45414;-87
2021/07/23 11:52:46;;;;;;;;;;;21.00;83.50;;;;;;4288251;33;44347;-82
2021/07/23 11:55:21;;;;;;;;;;;21.00;83.50;;;;;;4276025;33;46018;-84
2021/07/23 11:57:52;;;;;;;;;;;21.00;83.60;;;;;;4276083;33;45783;-83
2021/07/23 12:00:27;;;;;;;;;;;21.10;83.50;;;;;;4287902;33;43925;-85
2021/07/23 12:02:55;;;;;;;;;;;21.10;83.40;;;;;;4276057;33;45490;-85
2021/07/23 12:05:26;;;;;;;;;;;21.10;83.30;;;;;;4287350;33;44906;-85
2021/07/23 12:08:00;;;;;;;;;;;21.20;83.40;;;;;;4287959;33;43238;-89
2021/07/23 12:10:32;;;;;;;;;;;21.20;83.40;;;;;;4288029;33;44139;-89
2021/07/23 12:13:06;;;;;;;;;;;21.20;83.30;;;;;;4275976;33;44227;-89
2021/07/23 12:15:46;;;;;;;;;;;21.20;83.30;;;;;;4288914;33;20042;-88
2021/07/23 12:18:20;;;;;;;;;;;21.20;83.40;;;;;;4287890;33;44337;-87
2021/07/23 12:20:49;;;;;;;;;;;21.20;83.30;;;;;;4275959;33;45304;-89
2021/07/23 12:23:24;;;;;;;;;;;21.30;83.40;;;;;;4275520;33;44178;-87
2021/07/23 12:25:55;;;;;;;;;;;21.30;83.30;;;;;;4287926;33;43422;-88
2021/07/23 12:28:34;;;;;;;;;;;21.30;83.20;;;;;;4276200;33;42337;-88
2021/07/23 12:31:02;;;;;;;;;;;21.30;83.20;;;;;;4288119;33;44195;-89
2021/07/23 12:33:29;;;;;;;;;;;21.40;83.30;;;;;;4275339;33;43760;-89
2021/07/23 12:36:19;;;;;;;;;;;21.40;83.10;;;;;;4275915;33;40689;-88
2021/07/23 12:39:06;;;;;;;;;;;21.40;83.10;;;;;;4275870;33;45445;-89
2021/07/23 12:41:37;;;;;;;;;;;21.50;83.20;;;;;;4276407;33;45135;-89
2021/07/23 12:44:06;;;;;;;;;;;21.50;83.10;;;;;;4287472;33;43995;-89
2021/07/23 12:46:34;;;;;;;;;;;21.50;83.10;;;;;;4275359;33;44088;-87
2021/07/23 12:49:10;;;;;;;;;;;21.60;83.00;;;;;;4287282;33;43624;-89
2021/07/23 12:51:46;;;;;;;;;;;21.60;83.00;;;;;;4275045;33;44313;-87
2021/07/23 12:54:17;;;;;;;;;;;21.70;82.90;;;;;;4275621;33;45105;-89
2021/07/23 12:56:44;;;;;;;;;;;21.70;82.80;;;;;;4287335;33;44030;-89
2021/07/23 12:59:23;;;;;;;;;;;21.70;82.90;;;;;;4275449;33;45055;-89
2021/07/23 13:01:51;;;;;;;;;;;21.70;82.80;;;;;;4275362;33;44206;-89
2021/07/23 13:04:24;;;;;;;;;;;21.70;82.90;;;;;;4275080;33;44628;-88
2021/07/23 13:06:51;;;;;;;;;;;21.70;82.50;;;;;;4287330;33;44022;-88
2021/07/23 13:09:24;;;;;;;;;;;21.80;82.70;;;;;;4261413;33;44405;-88
2021/07/23 13:12:00;;;;;;;;;;;21.80;82.50;;;;;;4272864;33;43477;-88
2021/07/23 13:14:28;;;;;;;;;;;21.90;82.60;;;;;;4261406;33;43498;-88
2021/07/23 13:17:00;;;;;;;;;;;21.90;82.70;;;;;;4262151;33;20058;-89
2021/07/23 13:19:28;;;;;;;;;;;21.90;82.50;;;;;;4272938;33;45322;-89
2021/07/23 13:22:06;;;;;;;;;;;21.90;82.50;;;;;;4260708;33;44336;-88
2021/07/23 13:24:34;;;;;;;;;;;21.90;82.40;;;;;;4272738;33;43799;-88
2021/07/23 13:27:02;;;;;;;;;;;22.00;82.60;;;;;;4261029;33;44139;-88
2021/07/23 13:29:29;;;;;;;;;;;22.00;82.50;;;;;;4272100;33;45249;-88
2021/07/23 13:32:02;;;;;;;;;;;22.00;82.50;;;;;;4260904;33;45256;-87
2021/07/23 13:34:30;;;;;;;;;;;22.10;82.30;;;;;;4261102;33;44596;-88
2021/07/23 13:37:04;;;;;;;;;;;22.10;82.30;;;;;;4273341;33;31381;-88
2021/07/23 13:39:54;;;;;;;;;;;22.10;82.40;;;;;;4260805;33;43676;-88
2021/07/23 13:42:25;;;;;;;;;;;22.20;82.40;;;;;;4272592;33;45503;-88
2021/07/23 13:44:52;;;;;;;;;;;22.20;82.30;;;;;;4260848;33;45367;-88
2021/07/23 13:47:19;;;;;;;;;;;22.20;82.20;;;;;;4273273;33;20042;-89
2021/07/23 13:49:56;;;;;;;;;;;22.20;82.10;;;;;;4260529;33;44428;-88
2021/07/23 13:52:23;;;;;;;;;;;22.30;82.10;;;;;;4260676;33;43102;-87
2021/07/23 13:54:51;;;;;;;;;;;22.30;82.10;;;;;;4271994;33;44009;-87
2021/07/23 13:57:18;;;;;;;;;;;22.30;81.80;;;;;;4260503;33;45174;-87
2021/07/23 13:59:46;;;;;;;;;;;22.30;81.80;;;;;;4272299;33;44908;-87
2021/07/23 14:02:13;;;;;;;;;;;22.30;81.80;;;;;;4260489;33;44177;-88
2021/07/23 14:04:42;;;;;;;;;;;22.40;82.00;;;;;;4272680;33;44272;-88
2021/07/23 14:07:12;;;;;;;;;;;22.40;81.80;;;;;;4274445;33;45094;-88
2021/07/23 14:09:42;;;;;;;;;;;22.50;81.90;;;;;;4274678;33;43177;-89
2021/07/23 14:12:14;;;;;;;;;;;22.50;81.40;;;;;;4286890;33;43762;-90
2021/07/23 14:14:47;;;;;;;;;;;22.50;81.20;;;;;;4274633;33;44481;-88
2021/07/23 14:17:17;;;;;;;;;;;22.50;81.60;;;;;;4274622;33;45171;-89
2021/07/23 14:19:56;;;;;;;;;;;22.60;81.40;;;;;;4286488;33;43826;-88
2021/07/23 14:22:28;;;;;;;;;;;22.60;81.20;;;;;;4274377;33;42521;-89
2021/07/23 14:24:55;;;;;;;;;;;22.70;81.30;;;;;;4286698;33;45038;-88
2021/07/23 14:27:25;;;;;;;;;;;22.60;81.30;;;;;;4274423;33;43471;-88
2021/07/23 14:29:58;;;;;;;;;;;22.70;81.50;;;;;;4285901;33;43698;-87
2021/07/23 14:32:26;;;;;;;;;;;22.70;81.40;;;;;;4274188;33;43230;-87
2021/07/23 14:34:59;;;;;;;;;;;22.80;81.50;;;;;;4274293;33;44126;-86
2021/07/23 14:37:30;;;;;;;;;;;22.70;80.70;;;;;;4287300;33;42491;-88
2021/07/23 14:40:00;;;;;;;;;;;22.80;81.00;;;;;;4274246;33;43481;-88
2021/07/23 14:42:29;;;;;;;;;;;22.80;81.00;;;;;;4286041;33;43248;-87
2021/07/23 14:45:02;;;;;;;;;;;22.80;81.10;;;;;;4286931;33;44567;-87
2021/07/23 14:47:29;;;;;;;;;;;22.90;80.80;;;;;;4287326;33;45213;-88
2021/07/23 14:50:07;;;;;;;;;;;22.90;80.80;;;;;;4286051;33;42068;-89
2021/07/23 14:52:37;;;;;;;;;;;22.90;81.00;;;;;;4274321;33;45128;-88
2021/07/23 14:55:11;;;;;;;;;;;23.00;81.00;;;;;;4273706;33;44732;-87
2021/07/23 14:57:38;;;;;;;;;;;23.00;80.60;;;;;;4287105;33;45011;-88
2021/07/23 15:00:10;;;;;;;;;;;23.00;81.00;;;;;;4274503;33;45250;-88
2021/07/23 15:02:43;;;;;;;;;;;23.00;80.90;;;;;;4286059;33;44770;-87
2021/07/23 15:05:11;;;;;;;;;;;23.10;80.60;;;;;;4287299;33;43860;-90
2021/07/23 15:07:48;;;;;;;;;;;23.10;80.60;;;;;;4273979;33;43550;-88
2021/07/23 15:10:21;;;;;;;;;;;23.10;80.40;;;;;;4286006;33;44270;-90
2021/07/23 15:12:54;;;;;;;;;;;23.10;80.20;;;;;;4274227;33;44817;-89
2021/07/23 15:15:22;;;;;;;;;;;23.20;80.10;;;;;;4286427;33;43392;-90
2021/07/23 15:17:52;;;;;;;;;;;23.20;79.80;;;;;;4289683;33;44412;-88
2021/07/23 15:20:20;;;;;;;;;;;23.20;79.40;;;;;;4289315;33;20043;-89
2021/07/23 15:22:52;;;;;;;;;;;23.20;79.60;;;;;;4276674;33;45670;-89
2021/07/23 15:25:22;;;;;;;;;;;23.30;79.50;;;;;;4276929;33;45073;-88
2021/07/23 15:27:53;;;;;;;;;;;23.30;80.40;;;;;;4288885;33;44044;-88
2021/07/23 15:30:23;;;;;;;;;;;23.30;79.40;;;;;;4277044;33;44395;-89
2021/07/23 15:32:56;;;;;;;;;;;23.30;79.10;;;;;;4288470;33;44867;-89
2021/07/23 15:35:23;;;;;;;;;;;23.30;79.40;;;;;;4290019;33;43993;-88
2021/07/23 15:37:50;;;;;;;;;;;23.30;79.00;;;;;;4288288;33;42561;-88
2021/07/23 15:40:21;;;;;;;;;;;23.30;79.30;;;;;;4276045;33;44122;-89
2021/07/23 15:42:56;;;;;;;;;;;23.40;79.10;;;;;;4276884;33;43855;-89
2021/07/23 15:45:31;;;;;;;;;;;23.40;79.00;;;;;;4288329;33;44794;-87
2021/07/23 15:48:07;;;;;;;;;;;23.40;78.80;;;;;;4276236;33;45472;-87
2021/07/23 15:50:41;;;;;;;;;;;23.40;78.60;;;;;;4289193;33;20046;-88
2021/07/23 15:53:08;;;;;;;;;;;23.40;79.30;;;;;;4276448;33;45518;-89
2021/07/23 15:55:39;;;;;;;;;;;23.40;78.50;;;;;;4288052;33;45171;-89